sensor_id;sensor_type;location;lat;lon;timestamp;pressure;altitude;pressure_sealevel;temperature;humidity
49044;BME280;34860;48.066;14.124;2023-02-03T00:00:26;97573.88;;;0.91;76.13
49044;BME280;34860;48.066;14.124;2023-02-03T00:03:16;97575.03;;;0.90;76.18
49044;BME280;34860;48.066;14.124;2023-02-03T00:06:04;97574.31;;;0.93;76.09
49044;BME280;34860;48.066;14.124;2023-02-03T00:08:54;97571.59;;;0.93;76.16
49044;BME280;34860;48.066;14.124;2023-02-03T00:11:45;97571.25;;;0.95;76.09
49044;BME280;34860;48.066;14.124;2023-02-03T00:14:33;97562.47;;;0.89;76.24
49044;BME280;34860;48.066;14.124;2023-02-03T00:17:20;97557.34;;;0.87;76.18
49044;BME280;34860;48.066;14.124;2023-02-03T00:20:10;97555.31;;;0.84;75.98
49044;BME280;34860;48.066;14.124;2023-02-03T00:23:03;97549.06;;;0.84;76.24
49044;BME280;34860;48.066;14.124;2023-02-03T00:25:52;97542.81;;;0.83;76.15
49044;BME280;34860;48.066;14.124;2023-02-03T00:28:41;97549.84;;;0.84;76.20
49044;BME280;34860;48.066;14.124;2023-02-03T00:31:32;97540.16;;;0.87;76.28
49044;BME280;34860;48.066;14.124;2023-02-03T00:34:20;97538.66;;;0.89;76.24
49044;BME280;34860;48.066;14.124;2023-02-03T00:37:11;97533.28;;;0.93;76.20
49044;BME280;34860;48.066;14.124;2023-02-03T00:39:59;97517.63;;;0.94;76.17
49044;BME280;34860;48.066;14.124;2023-02-03T00:42:48;97525.16;;;0.97;76.12
49044;BME280;34860;48.066;14.124;2023-02-03T00:45:36;97524.09;;;1.01;75.99
49044;BME280;34860;48.066;14.124;2023-02-03T00:48:24;97519.06;;;1.03;76.18
49044;BME280;34860;48.066;14.124;2023-02-03T00:51:12;97511.75;;;1.07;76.14
49044;BME280;34860;48.066;14.124;2023-02-03T00:54:00;97509.50;;;1.13;76.02
49044;BME280;34860;48.066;14.124;2023-02-03T00:56:48;97507.66;;;1.17;76.01
49044;BME280;34860;48.066;14.124;2023-02-03T00:59:37;97507.38;;;1.22;75.95
49044;BME280;34860;48.066;14.124;2023-02-03T01:02:25;97509.78;;;1.24;75.95
49044;BME280;34860;48.066;14.124;2023-02-03T01:05:13;97508.28;;;1.26;76.10
49044;BME280;34860;48.066;14.124;2023-02-03T01:08:02;97503.66;;;1.31;75.97
49044;BME280;34860;48.066;14.124;2023-02-03T01:10:50;97499.78;;;1.32;76.09
49044;BME280;34860;48.066;14.124;2023-02-03T01:13:40;97487.34;;;1.34;75.96
49044;BME280;34860;48.066;14.124;2023-02-03T01:16:29;97489.72;;;1.36;76.03
49044;BME280;34860;48.066;14.124;2023-02-03T01:19:21;97483.09;;;1.37;76.13
49044;BME280;34860;48.066;14.124;2023-02-03T01:22:09;97478.41;;;1.37;76.18
49044;BME280;34860;48.066;14.124;2023-02-03T01:24:57;97478.84;;;1.39;76.04
49044;BME280;34860;48.066;14.124;2023-02-03T01:27:45;97481.59;;;1.39;76.11
49044;BME280;34860;48.066;14.124;2023-02-03T01:30:33;97482.38;;;1.40;76.17
49044;BME280;34860;48.066;14.124;2023-02-03T01:33:24;97476.53;;;1.41;76.32
49044;BME280;34860;48.066;14.124;2023-02-03T01:36:12;97474.94;;;1.40;76.29
49044;BME280;34860;48.066;14.124;2023-02-03T01:39:01;97476.53;;;1.41;76.20
49044;BME280;34860;48.066;14.124;2023-02-03T01:41:49;97473.72;;;1.38;76.31
49044;BME280;34860;48.066;14.124;2023-02-03T01:44:41;97469.38;;;1.37;76.50
49044;BME280;34860;48.066;14.124;2023-02-03T01:47:32;97459.69;;;1.39;76.49
49044;BME280;34860;48.066;14.124;2023-02-03T01:50:25;97477.69;;;1.40;76.33
49044;BME280;34860;48.066;14.124;2023-02-03T01:53:14;97478.22;;;1.46;76.39
49044;BME280;34860;48.066;14.124;2023-02-03T01:56:03;97468.84;;;1.47;76.31
49044;BME280;34860;48.066;14.124;2023-02-03T01:58:52;97474.06;;;1.52;76.29
49044;BME280;34860;48.066;14.124;2023-02-03T02:01:41;97470.88;;;1.50;76.18
49044;BME280;34860;48.066;14.124;2023-02-03T02:04:35;97469.81;;;1.55;76.35
49044;BME280;34860;48.066;14.124;2023-02-03T02:07:28;97475.66;;;1.53;76.34
49044;BME280;34860;48.066;14.124;2023-02-03T02:10:18;97465.53;;;1.57;76.25
49044;BME280;34860;48.066;14.124;2023-02-03T02:13:06;97464.84;;;1.60;76.29
49044;BME280;34860;48.066;14.124;2023-02-03T02:16:04;97468.81;;;1.63;76.20
49044;BME280;34860;48.066;14.124;2023-02-03T02:19:08;97467.66;;;1.64;76.12
49044;BME280;34860;48.066;14.124;2023-02-03T02:22:07;97460.25;;;1.65;76.07
49044;BME280;34860;48.066;14.124;2023-02-03T02:25:13;97450.06;;;1.65;76.21
49044;BME280;34860;48.066;14.124;2023-02-03T02:28:28;97438.75;;;1.67;76.27
49044;BME280;34860;48.066;14.124;2023-02-03T02:31:49;97443.09;;;1.68;76.15
49044;BME280;34860;48.066;14.124;2023-02-03T02:34:48;97452.09;;;1.68;76.23
49044;BME280;34860;48.066;14.124;2023-02-03T02:37:47;97450.94;;;1.69;76.28
49044;BME280;34860;48.066;14.124;2023-02-03T02:40:44;97444.28;;;1.70;76.26
49044;BME280;34860;48.066;14.124;2023-02-03T02:43:40;97444.28;;;1.70;76.40
49044;BME280;34860;48.066;14.124;2023-02-03T02:46:31;97441.41;;;1.63;76.63
49044;BME280;34860;48.066;14.124;2023-02-03T02:49:28;97445.31;;;1.62;76.90
49044;BME280;34860;48.066;14.124;2023-02-03T02:52:18;97440.59;;;1.62;76.59
49044;BME280;34860;48.066;14.124;2023-02-03T02:55:19;97434.75;;;1.64;76.56
49044;BME280;34860;48.066;14.124;2023-02-03T02:58:13;97418.84;;;1.50;76.40
49044;BME280;34860;48.066;14.124;2023-02-03T03:01:04;97434.59;;;1.37;76.88
49044;BME280;34860;48.066;14.124;2023-02-03T03:03:53;97422.13;;;1.40;76.87
49044;BME280;34860;48.066;14.124;2023-02-03T03:06:45;97420.97;;;1.41;76.85
49044;BME280;34860;48.066;14.124;2023-02-03T03:09:38;97428.84;;;1.42;76.92
49044;BME280;34860;48.066;14.124;2023-02-03T03:12:30;97428.13;;;1.45;77.07
49044;BME280;34860;48.066;14.124;2023-02-03T03:15:22;97431.66;;;1.46;76.77
49044;BME280;34860;48.066;14.124;2023-02-03T03:18:13;97412.13;;;1.48;76.62
49044;BME280;34860;48.066;14.124;2023-02-03T03:21:04;97420.06;;;1.53;76.71
49044;BME280;34860;48.066;14.124;2023-02-03T03:23:56;97410.69;;;1.54;76.61
49044;BME280;34860;48.066;14.124;2023-02-03T03:26:50;97406.00;;;1.54;76.59
49044;BME280;34860;48.066;14.124;2023-02-03T03:29:42;97394.31;;;1.57;76.83
49044;BME280;34860;48.066;14.124;2023-02-03T03:32:31;97414.72;;;1.60;76.56
49044;BME280;34860;48.066;14.124;2023-02-03T03:35:20;97413.19;;;1.62;76.52
49044;BME280;34860;48.066;14.124;2023-02-03T03:38:13;97411.63;;;1.61;76.53
49044;BME280;34860;48.066;14.124;2023-02-03T03:41:11;97409.31;;;1.63;76.68
49044;BME280;34860;48.066;14.124;2023-02-03T03:44:04;97405.34;;;1.61;76.74
49044;BME280;34860;48.066;14.124;2023-02-03T03:46:59;97411.19;;;1.59;76.60
49044;BME280;34860;48.066;14.124;2023-02-03T03:49:50;97408.81;;;1.58;76.64
49044;BME280;34860;48.066;14.124;2023-02-03T03:52:42;97403.69;;;1.56;76.61
49044;BME280;34860;48.066;14.124;2023-02-03T03:55:34;97421.00;;;1.60;76.65
49044;BME280;34860;48.066;14.124;2023-02-03T03:58:26;97395.56;;;1.60;76.51
49044;BME280;34860;48.066;14.124;2023-02-03T04:01:17;97414.38;;;1.61;76.54
49044;BME280;34860;48.066;14.124;2023-02-03T04:04:08;97406.59;;;1.63;76.37
49044;BME280;34860;48.066;14.124;2023-02-03T04:06:57;97401.88;;;1.64;76.63
49044;BME280;34860;48.066;14.124;2023-02-03T04:09:45;97399.59;;;1.66;76.56
49044;BME280;34860;48.066;14.124;2023-02-03T04:12:33;97406.66;;;1.67;76.60
49044;BME280;34860;48.066;14.124;2023-02-03T04:15:22;97396.88;;;1.66;76.66
49044;BME280;34860;48.066;14.124;2023-02-03T04:18:11;97397.72;;;1.70;76.77
49044;BME280;34860;48.066;14.124;2023-02-03T04:20:59;97397.78;;;1.74;76.70
49044;BME280;34860;48.066;14.124;2023-02-03T04:23:47;97395.03;;;1.74;76.70
49044;BME280;34860;48.066;14.124;2023-02-03T04:26:36;97409.97;;;1.76;76.68
49044;BME280;34860;48.066;14.124;2023-02-03T04:29:24;97398.66;;;1.78;76.66
49044;BME280;34860;48.066;14.124;2023-02-03T04:32:14;97403.00;;;1.79;76.78
49044;BME280;34860;48.066;14.124;2023-02-03T04:35:03;97393.25;;;1.81;76.59
49044;BME280;34860;48.066;14.124;2023-02-03T04:37:52;97390.50;;;1.81;76.71
49044;BME280;34860;48.066;14.124;2023-02-03T04:40:40;97391.38;;;1.86;76.70
49044;BME280;34860;48.066;14.124;2023-02-03T04:43:28;97399.66;;;1.89;76.76
49044;BME280;34860;48.066;14.124;2023-02-03T04:46:16;97407.09;;;1.89;76.74
49044;BME280;34860;48.066;14.124;2023-02-03T04:49:06;97405.13;;;1.89;76.92
49044;BME280;34860;48.066;14.124;2023-02-03T04:51:57;97391.84;;;1.91;76.77
49044;BME280;34860;48.066;14.124;2023-02-03T04:54:45;97399.00;;;1.96;76.79
49044;BME280;34860;48.066;14.124;2023-02-03T04:57:33;97407.59;;;1.94;76.84
49044;BME280;34860;48.066;14.124;2023-02-03T05:00:21;97404.13;;;1.97;76.83
49044;BME280;34860;48.066;14.124;2023-02-03T05:03:09;97414.72;;;1.99;76.87
49044;BME280;34860;48.066;14.124;2023-02-03T05:05:58;97399.88;;;2.00;76.95
49044;BME280;34860;48.066;14.124;2023-02-03T05:08:46;97391.72;;;2.04;76.82
49044;BME280;34860;48.066;14.124;2023-02-03T05:11:34;97386.22;;;2.04;76.84
49044;BME280;34860;48.066;14.124;2023-02-03T05:14:22;97388.25;;;2.07;76.90
49044;BME280;34860;48.066;14.124;2023-02-03T05:17:13;97391.78;;;2.07;76.80
49044;BME280;34860;48.066;14.124;2023-02-03T05:20:01;97397.25;;;2.07;76.96
49044;BME280;34860;48.066;14.124;2023-02-03T05:22:50;97394.09;;;2.05;76.89
49044;BME280;34860;48.066;14.124;2023-02-03T05:25:38;97410.19;;;2.07;76.97
49044;BME280;34860;48.066;14.124;2023-02-03T05:28:26;97415.66;;;2.07;77.02
49044;BME280;34860;48.066;14.124;2023-02-03T05:31:14;97441.94;;;2.08;76.88
49044;BME280;34860;48.066;14.124;2023-02-03T05:34:02;97424.75;;;2.11;76.98
49044;BME280;34860;48.066;14.124;2023-02-03T05:36:50;97434.19;;;2.13;76.99
49044;BME280;34860;48.066;14.124;2023-02-03T05:39:40;97432.63;;;2.12;76.98
49044;BME280;34860;48.066;14.124;2023-02-03T05:42:28;97435.38;;;2.12;76.83
49044;BME280;34860;48.066;14.124;2023-02-03T05:45:15;97409.97;;;2.15;76.98
49044;BME280;34860;48.066;14.124;2023-02-03T05:48:04;97399.38;;;2.14;77.08
49044;BME280;34860;48.066;14.124;2023-02-03T05:50:53;97377.06;;;2.15;76.92
49044;BME280;34860;48.066;14.124;2023-02-03T05:53:40;97388.09;;;2.19;77.03
49044;BME280;34860;48.066;14.124;2023-02-03T05:56:30;97386.91;;;2.20;76.96
49044;BME280;34860;48.066;14.124;2023-02-03T05:59:18;97389.19;;;2.14;76.97
49044;BME280;34860;48.066;14.124;2023-02-03T06:02:06;97393.78;;;2.10;77.28
49044;BME280;34860;48.066;14.124;2023-02-03T06:04:54;97391.56;;;2.16;77.24
49044;BME280;34860;48.066;14.124;2023-02-03T06:07:42;97386.13;;;2.20;77.24
49044;BME280;34860;48.066;14.124;2023-02-03T06:10:30;97381.88;;;2.22;77.14
49044;BME280;34860;48.066;14.124;2023-02-03T06:13:21;97370.59;;;2.27;77.21
49044;BME280;34860;48.066;14.124;2023-02-03T06:16:08;97381.63;;;2.31;76.98
49044;BME280;34860;48.066;14.124;2023-02-03T06:18:57;97373.41;;;2.31;77.11
49044;BME280;34860;48.066;14.124;2023-02-03T06:21:46;97369.16;;;2.33;77.01
49044;BME280;34860;48.066;14.124;2023-02-03T06:24:34;97362.47;;;2.34;77.19
49044;BME280;34860;48.066;14.124;2023-02-03T06:27:23;97366.81;;;2.35;77.18
49044;BME280;34860;48.066;14.124;2023-02-03T06:30:13;97353.53;;;2.38;77.16
49044;BME280;34860;48.066;14.124;2023-02-03T06:33:01;97336.28;;;2.37;77.15
49044;BME280;34860;48.066;14.124;2023-02-03T06:35:49;97346.88;;;2.39;77.31
49044;BME280;34860;48.066;14.124;2023-02-03T06:38:37;97348.91;;;2.42;77.22
49044;BME280;34860;48.066;14.124;2023-02-03T06:41:25;97348.91;;;2.42;77.09
49044;BME280;34860;48.066;14.124;2023-02-03T06:44:16;97365.00;;;2.43;77.15
49044;BME280;34860;48.066;14.124;2023-02-03T06:47:05;97365.41;;;2.45;77.22
49044;BME280;34860;48.066;14.124;2023-02-03T06:49:53;97357.63;;;2.47;77.19
49044;BME280;34860;48.066;14.124;2023-02-03T06:52:42;97363.91;;;2.48;77.22
49044;BME280;34860;48.066;14.124;2023-02-03T06:55:30;97352.97;;;2.51;77.53
49044;BME280;34860;48.066;14.124;2023-02-03T06:58:17;97345.16;;;2.53;77.19
49044;BME280;34860;48.066;14.124;2023-02-03T07:01:05;97328.06;;;2.60;77.02
49044;BME280;34860;48.066;14.124;2023-02-03T07:03:55;97347.69;;;2.62;76.98
49044;BME280;34860;48.066;14.124;2023-02-03T07:06:44;97350.84;;;2.64;76.92
49044;BME280;34860;48.066;14.124;2023-02-03T07:09:32;97348.88;;;2.65;76.92
49044;BME280;34860;48.066;14.124;2023-02-03T07:12:20;97342.66;;;2.68;76.88
49044;BME280;34860;48.066;14.124;2023-02-03T07:15:09;97355.63;;;2.71;76.91
49044;BME280;34860;48.066;14.124;2023-02-03T07:17:57;97357.28;;;2.76;76.94
49044;BME280;34860;48.066;14.124;2023-02-03T07:20:46;97362.41;;;2.77;76.87
49044;BME280;34860;48.066;14.124;2023-02-03T07:23:34;97382.84;;;2.80;76.81
49044;BME280;34860;48.066;14.124;2023-02-03T07:26:23;97361.72;;;2.84;76.87
49044;BME280;34860;48.066;14.124;2023-02-03T07:29:12;97376.31;;;2.88;76.74
49044;BME280;34860;48.066;14.124;2023-02-03T07:32:00;97361.47;;;2.93;76.70
49044;BME280;34860;48.066;14.124;2023-02-03T07:34:48;97367.38;;;2.95;76.60
49044;BME280;34860;48.066;14.124;2023-02-03T07:37:38;97369.03;;;2.99;76.53
49044;BME280;34860;48.066;14.124;2023-02-03T07:40:26;97369.06;;;3.03;76.46
49044;BME280;34860;48.066;14.124;2023-02-03T07:43:14;97384.03;;;3.05;76.42
49044;BME280;34860;48.066;14.124;2023-02-03T07:46:02;97381.31;;;3.09;76.53
49044;BME280;34860;48.066;14.124;2023-02-03T07:48:51;97384.13;;;3.13;76.43
49044;BME280;34860;48.066;14.124;2023-02-03T07:51:39;97376.31;;;3.15;76.44
49044;BME280;34860;48.066;14.124;2023-02-03T07:54:28;97372.47;;;3.19;76.51
49044;BME280;34860;48.066;14.124;2023-02-03T07:57:16;97347.38;;;3.21;76.49
49044;BME280;34860;48.066;14.124;2023-02-03T08:00:05;97327.34;;;3.20;76.46
49044;BME280;34860;48.066;14.124;2023-02-03T08:03:02;97324.66;;;3.24;76.66
49044;BME280;34860;48.066;14.124;2023-02-03T08:05:51;97322.78;;;3.32;76.52
49044;BME280;34860;48.066;14.124;2023-02-03T08:08:39;97338.50;;;3.35;76.53
49044;BME280;34860;48.066;14.124;2023-02-03T08:11:29;97348.75;;;3.38;76.39
49044;BME280;34860;48.066;14.124;2023-02-03T08:14:18;97344.13;;;3.42;76.31
49044;BME280;34860;48.066;14.124;2023-02-03T08:17:06;97336.69;;;3.46;76.46
49044;BME280;34860;48.066;14.124;2023-02-03T08:19:54;97343.75;;;3.43;76.30
49044;BME280;34860;48.066;14.124;2023-02-03T08:22:42;97348.00;;;3.41;76.57
49044;BME280;34860;48.066;14.124;2023-02-03T08:25:30;97342.16;;;3.42;76.61
49044;BME280;34860;48.066;14.124;2023-02-03T08:28:20;97347.31;;;3.48;76.47
49044;BME280;34860;48.066;14.124;2023-02-03T08:31:09;97343.44;;;3.52;76.43
49044;BME280;34860;48.066;14.124;2023-02-03T08:33:57;97335.31;;;3.59;76.44
49044;BME280;34860;48.066;14.124;2023-02-03T08:36:45;97329.06;;;3.62;76.43
49044;BME280;34860;48.066;14.124;2023-02-03T08:39:33;97327.09;;;3.63;76.47
49044;BME280;34860;48.066;14.124;2023-02-03T08:42:21;97329.09;;;3.66;76.33
49044;BME280;34860;48.066;14.124;2023-02-03T08:45:11;97327.13;;;3.67;76.53
49044;BME280;34860;48.066;14.124;2023-02-03T08:48:00;97326.00;;;3.71;76.40
49044;BME280;34860;48.066;14.124;2023-02-03T08:50:48;97330.38;;;3.76;76.40
49044;BME280;34860;48.066;14.124;2023-02-03T08:53:38;97337.84;;;3.75;76.33
49044;BME280;34860;48.066;14.124;2023-02-03T08:56:26;97303.28;;;3.78;76.45
49044;BME280;34860;48.066;14.124;2023-02-03T08:59:15;97302.53;;;3.81;76.43
49044;BME280;34860;48.066;14.124;2023-02-03T09:02:08;97308.88;;;3.85;76.45
49044;BME280;34860;48.066;14.124;2023-02-03T09:04:58;97307.00;;;3.93;76.36
49044;BME280;34860;48.066;14.124;2023-02-03T09:07:46;97297.56;;;3.94;76.44
49044;BME280;34860;48.066;14.124;2023-02-03T09:10:35;97323.53;;;3.96;76.36
49044;BME280;34860;48.066;14.124;2023-02-03T09:13:23;97333.41;;;4.01;76.36
49044;BME280;34860;48.066;14.124;2023-02-03T09:16:11;97319.28;;;4.03;76.27
49044;BME280;34860;48.066;14.124;2023-02-03T09:19:01;97346.03;;;4.06;76.31
49044;BME280;34860;48.066;14.124;2023-02-03T09:21:49;97323.28;;;4.09;76.34
49044;BME280;34860;48.066;14.124;2023-02-03T09:24:38;97307.56;;;4.13;76.31
49044;BME280;34860;48.066;14.124;2023-02-03T09:27:26;97309.16;;;4.14;76.24
49044;BME280;34860;48.066;14.124;2023-02-03T09:30:14;97302.06;;;4.13;76.36
49044;BME280;34860;48.066;14.124;2023-02-03T09:33:02;97299.69;;;4.11;76.41
49044;BME280;34860;48.066;14.124;2023-02-03T09:35:55;97305.63;;;4.13;76.52
49044;BME280;34860;48.066;14.124;2023-02-03T09:38:43;97306.06;;;4.19;76.35
49044;BME280;34860;48.066;14.124;2023-02-03T09:41:48;97305.78;;;4.28;76.27
49044;BME280;34860;48.066;14.124;2023-02-03T09:44:42;97302.25;;;4.31;76.14
49044;BME280;34860;48.066;14.124;2023-02-03T09:47:34;97311.69;;;4.33;76.16
49044;BME280;34860;48.066;14.124;2023-02-03T09:50:25;97274.38;;;4.32;76.16
49044;BME280;34860;48.066;14.124;2023-02-03T09:53:29;97299.19;;;4.40;76.19
49044;BME280;34860;48.066;14.124;2023-02-03T09:56:25;97277.19;;;4.43;76.15
49044;BME280;34860;48.066;14.124;2023-02-03T09:59:15;97267.41;;;4.53;76.04
49044;BME280;34860;48.066;14.124;2023-02-03T10:02:15;97287.91;;;4.55;76.06
49044;BME280;34860;48.066;14.124;2023-02-03T10:05:14;97258.78;;;4.54;75.91
49044;BME280;34860;48.066;14.124;2023-02-03T10:08:12;97250.13;;;4.52;76.04
49044;BME280;34860;48.066;14.124;2023-02-03T10:11:15;97288.28;;;4.54;76.00
49044;BME280;34860;48.066;14.124;2023-02-03T10:14:21;97272.88;;;4.46;76.10
49044;BME280;34860;48.066;14.124;2023-02-03T10:17:21;97276.03;;;4.48;76.24
49044;BME280;34860;48.066;14.124;2023-02-03T10:20:17;97268.59;;;4.48;76.18
49044;BME280;34860;48.066;14.124;2023-02-03T10:23:11;97261.91;;;4.53;76.21
49044;BME280;34860;48.066;14.124;2023-02-03T10:26:04;97261.53;;;4.54;76.06
49044;BME280;34860;48.066;14.124;2023-02-03T10:28:57;97265.91;;;4.59;76.05
49044;BME280;34860;48.066;14.124;2023-02-03T10:31:49;97257.31;;;4.64;75.92
49044;BME280;34860;48.066;14.124;2023-02-03T10:34:37;97246.31;;;4.68;76.06
49044;BME280;34860;48.066;14.124;2023-02-03T10:37:28;97253.38;;;4.69;76.02
49044;BME280;34860;48.066;14.124;2023-02-03T10:40:18;97231.78;;;4.75;76.04
49044;BME280;34860;48.066;14.124;2023-02-03T10:43:08;97225.50;;;4.78;75.95
49044;BME280;34860;48.066;14.124;2023-02-03T10:46:17;97212.91;;;4.80;76.00
49044;BME280;34860;48.066;14.124;2023-02-03T10:49:06;97213.72;;;4.81;76.04
49044;BME280;34860;48.066;14.124;2023-02-03T10:51:58;97183.06;;;4.86;76.04
49044;BME280;34860;48.066;14.124;2023-02-03T10:54:49;97186.25;;;4.91;76.00
49044;BME280;34860;48.066;14.124;2023-02-03T10:57:37;97184.66;;;4.90;76.11
49044;BME280;34860;48.066;14.124;2023-02-03T11:00:30;97207.09;;;4.89;76.04
49044;BME280;34860;48.066;14.124;2023-02-03T11:03:22;97203.53;;;4.88;76.12
49044;BME280;34860;48.066;14.124;2023-02-03T11:06:13;97194.09;;;4.89;76.19
49044;BME280;34860;48.066;14.124;2023-02-03T11:09:21;97182.69;;;4.91;76.15
49044;BME280;34860;48.066;14.124;2023-02-03T11:12:13;97221.66;;;4.93;76.23
49044;BME280;34860;48.066;14.124;2023-02-03T11:15:04;97190.56;;;4.93;76.34
49044;BME280;34860;48.066;14.124;2023-02-03T11:17:54;97214.19;;;4.97;76.26
49044;BME280;34860;48.066;14.124;2023-02-03T11:20:43;97194.16;;;5.00;76.29
49044;BME280;34860;48.066;14.124;2023-02-03T11:23:31;97192.56;;;4.99;76.31
49044;BME280;34860;48.066;14.124;2023-02-03T11:26:22;97196.50;;;4.98;76.35
49044;BME280;34860;48.066;14.124;2023-02-03T11:29:16;97178.78;;;4.99;76.47
49044;BME280;34860;48.066;14.124;2023-02-03T11:32:15;97189.81;;;4.99;76.41
49044;BME280;34860;48.066;14.124;2023-02-03T11:35:12;97189.44;;;5.04;76.34
49044;BME280;34860;48.066;14.124;2023-02-03T11:38:02;97175.69;;;5.04;76.45
49044;BME280;34860;48.066;14.124;2023-02-03T11:40:57;97178.03;;;5.06;76.41
49044;BME280;34860;48.066;14.124;2023-02-03T11:43:46;97189.47;;;5.12;76.50
49044;BME280;34860;48.066;14.124;2023-02-03T11:46:36;97175.31;;;5.13;76.40
49044;BME280;34860;48.066;14.124;2023-02-03T11:49:41;97178.84;;;5.14;76.56
49044;BME280;34860;48.066;14.124;2023-02-03T11:52:55;97172.94;;;5.12;76.59
49044;BME280;34860;48.066;14.124;2023-02-03T11:56:00;97171.72;;;5.05;76.55
49044;BME280;34860;48.066;14.124;2023-02-03T11:59:15;97139.06;;;5.04;76.65
49044;BME280;34860;48.066;14.124;2023-02-03T12:02:26;97154.41;;;5.05;76.52
49044;BME280;34860;48.066;14.124;2023-02-03T12:05:39;97138.28;;;5.07;76.45
49044;BME280;34860;48.066;14.124;2023-02-03T12:08:38;97141.44;;;5.05;76.55
49044;BME280;34860;48.066;14.124;2023-02-03T12:11:43;97135.94;;;5.09;76.48
49044;BME280;34860;48.066;14.124;2023-02-03T12:14:39;97132.00;;;5.14;76.57
49044;BME280;34860;48.066;14.124;2023-02-03T12:17:44;97127.69;;;5.13;76.41
49044;BME280;34860;48.066;14.124;2023-02-03T12:20:46;97108.00;;;5.11;76.45
49044;BME280;34860;48.066;14.124;2023-02-03T12:23:48;97098.16;;;5.09;76.49
49044;BME280;34860;48.066;14.124;2023-02-03T12:26:49;97086.75;;;5.07;76.50
49044;BME280;34860;48.066;14.124;2023-02-03T12:29:44;97074.16;;;5.10;76.53
49044;BME280;34860;48.066;14.124;2023-02-03T12:32:36;97049.75;;;5.12;76.43
49044;BME280;34860;48.066;14.124;2023-02-03T12:35:28;97035.56;;;5.14;76.47
49044;BME280;34860;48.066;14.124;2023-02-03T12:38:30;97039.13;;;5.18;76.61
49044;BME280;34860;48.066;14.124;2023-02-03T12:41:26;97043.09;;;5.20;76.33
49044;BME280;34860;48.066;14.124;2023-02-03T12:44:20;97038.34;;;5.21;76.37
49044;BME280;34860;48.066;14.124;2023-02-03T12:47:15;97015.91;;;5.22;76.22
49044;BME280;34860;48.066;14.124;2023-02-03T12:50:08;97022.22;;;5.26;76.44
49044;BME280;34860;48.066;14.124;2023-02-03T12:53:01;97024.56;;;5.28;76.34
49044;BME280;34860;48.066;14.124;2023-02-03T12:55:55;97025.38;;;5.28;76.35
49044;BME280;34860;48.066;14.124;2023-02-03T12:58:50;97022.63;;;5.25;76.24
49044;BME280;34860;48.066;14.124;2023-02-03T13:01:44;97011.56;;;5.21;76.31
49044;BME280;34860;48.066;14.124;2023-02-03T13:04:37;96991.91;;;5.26;76.66
49044;BME280;34860;48.066;14.124;2023-02-03T13:07:32;96999.38;;;5.30;76.22
49044;BME280;34860;48.066;14.124;2023-02-03T13:10:30;96981.66;;;5.31;76.18
49044;BME280;34860;48.066;14.124;2023-02-03T13:13:28;96965.91;;;5.31;76.19
49044;BME280;34860;48.066;14.124;2023-02-03T13:16:23;96956.47;;;5.32;76.36
49044;BME280;34860;48.066;14.124;2023-02-03T13:19:17;96951.34;;;5.31;76.23
49044;BME280;34860;48.066;14.124;2023-02-03T13:22:12;96966.69;;;5.39;76.19
49044;BME280;34860;48.066;14.124;2023-02-03T13:25:06;96959.22;;;5.39;76.15
49044;BME280;34860;48.066;14.124;2023-02-03T13:28:05;96949.34;;;5.45;76.04
49044;BME280;34860;48.066;14.124;2023-02-03T13:31:12;96962.34;;;5.49;76.02
49044;BME280;34860;48.066;14.124;2023-02-03T13:34:25;96947.78;;;5.48;75.92
49044;BME280;34860;48.066;14.124;2023-02-03T13:37:34;96945.03;;;5.44;75.87
49044;BME280;34860;48.066;14.124;2023-02-03T13:40:33;96952.13;;;5.45;75.92
49044;BME280;34860;48.066;14.124;2023-02-03T13:43:27;96931.25;;;5.44;76.04
49044;BME280;34860;48.066;14.124;2023-02-03T13:46:26;96907.63;;;5.51;75.96
49044;BME280;34860;48.066;14.124;2023-02-03T13:49:22;96906.81;;;5.57;75.74
49044;BME280;34860;48.066;14.124;2023-02-03T13:52:23;96933.59;;;5.53;75.78
49044;BME280;34860;48.066;14.124;2023-02-03T13:55:25;96915.09;;;5.54;75.78
49044;BME280;34860;48.066;14.124;2023-02-03T13:58:20;96906.84;;;5.54;75.73
49044;BME280;34860;48.066;14.124;2023-02-03T14:01:28;96895.00;;;5.57;75.86
49044;BME280;34860;48.066;14.124;2023-02-03T14:04:50;96889.84;;;5.62;75.87
49044;BME280;34860;48.066;14.124;2023-02-03T14:07:40;96883.56;;;5.62;75.77
49044;BME280;34860;48.066;14.124;2023-02-03T14:10:28;96878.06;;;5.62;75.73
49044;BME280;34860;48.066;14.124;2023-02-03T14:13:19;96872.94;;;5.60;75.75
49044;BME280;34860;48.066;14.124;2023-02-03T14:16:21;96861.88;;;5.64;75.90
49044;BME280;34860;48.066;14.124;2023-02-03T14:19:11;96839.81;;;5.68;75.63
49044;BME280;34860;48.066;14.124;2023-02-03T14:22:03;96833.91;;;5.66;75.58
49044;BME280;34860;48.066;14.124;2023-02-03T14:24:53;96812.63;;;5.66;75.65
49044;BME280;34860;48.066;14.124;2023-02-03T14:27:42;96810.28;;;5.68;75.65
49044;BME280;34860;48.066;14.124;2023-02-03T14:30:30;96813.81;;;5.69;75.57
49044;BME280;34860;48.066;14.124;2023-02-03T14:33:18;96826.81;;;5.72;75.62
49044;BME280;34860;48.066;14.124;2023-02-03T14:36:26;96829.97;;;5.70;75.63
49044;BME280;34860;48.066;14.124;2023-02-03T14:39:59;96839.44;;;5.66;75.67
49044;BME280;34860;48.066;14.124;2023-02-03T14:42:54;96830.78;;;5.63;75.70
49044;BME280;34860;48.066;14.124;2023-02-03T14:46:24;96830.78;;;5.60;75.54
49044;BME280;34860;48.066;14.124;2023-02-03T14:49:26;96820.16;;;5.55;75.61
49044;BME280;34860;48.066;14.124;2023-02-03T14:52:27;96818.63;;;5.54;75.61
49044;BME280;34860;48.066;14.124;2023-02-03T14:55:32;96822.94;;;5.51;75.68
49044;BME280;34860;48.066;14.124;2023-02-03T14:58:27;96829.66;;;5.54;75.49
49044;BME280;34860;48.066;14.124;2023-02-03T15:01:25;96832.78;;;5.49;75.67
49044;BME280;34860;48.066;14.124;2023-02-03T15:04:20;96836.72;;;5.51;75.58
49044;BME280;34860;48.066;14.124;2023-02-03T15:07:09;96846.19;;;5.50;75.63
49044;BME280;34860;48.066;14.124;2023-02-03T15:09:57;96830.03;;;5.49;75.66
49044;BME280;34860;48.066;14.124;2023-02-03T15:12:48;96860.75;;;5.51;75.62